createdAt,value
2022-12-25T00:01:22.485Z,9.95
2022-12-25T00:03:50.434Z,10.00
2022-12-25T00:06:17.371Z,10.12
2022-12-25T00:08:44.566Z,10.02
2022-12-25T00:11:15.539Z,9.74
2022-12-25T00:13:42.624Z,9.79
2022-12-25T00:16:15.409Z,9.96
2022-12-25T00:18:42.399Z,9.93
2022-12-25T00:21:10.951Z,9.66
2022-12-25T00:23:38.145Z,9.75
2022-12-25T00:26:13.411Z,9.56
2022-12-25T00:28:40.273Z,9.48
2022-12-25T00:31:12.403Z,9.94
2022-12-25T00:33:41.453Z,9.78
2022-12-25T00:36:09.471Z,10.05
2022-12-25T00:38:37.994Z,10.04
2022-12-25T00:41:06.802Z,10.04
2022-12-25T00:43:33.660Z,10.13
2022-12-25T00:46:03.091Z,10.07
2022-12-25T00:48:30.695Z,10.07
2022-12-25T00:50:59.972Z,10.11
2022-12-25T00:53:27.940Z,10.13
2022-12-25T00:55:57.168Z,10.15
2022-12-25T00:58:25.007Z,10.08
2022-12-25T01:00:52.213Z,10.29
2022-12-25T01:03:19.201Z,10.22
2022-12-25T01:05:55.873Z,10.15
2022-12-25T01:08:22.673Z,9.95
2022-12-25T01:11:00.669Z,10.06
2022-12-25T01:13:28.801Z,10.15
2022-12-25T01:15:55.627Z,9.96
2022-12-25T01:18:24.045Z,10.10
2022-12-25T01:20:51.657Z,10.07
2022-12-25T01:23:18.683Z,10.05
2022-12-25T01:25:45.650Z,9.93
2022-12-25T01:28:12.732Z,9.83
2022-12-25T01:30:39.949Z,9.93
2022-12-25T01:33:07.111Z,9.75
2022-12-25T01:35:33.867Z,9.66
2022-12-25T01:38:00.843Z,10.01
2022-12-25T01:40:27.493Z,9.70
2022-12-25T01:42:54.369Z,9.79
2022-12-25T01:45:44.436Z,9.66
2022-12-25T01:48:19.043Z,9.69
2022-12-25T01:50:51.194Z,9.75
2022-12-25T01:53:18.094Z,9.70
2022-12-25T01:55:48.303Z,9.62
2022-12-25T01:58:16.231Z,9.72
2022-12-25T02:00:43.495Z,9.59
2022-12-25T02:03:29.527Z,9.54
2022-12-25T02:05:58.690Z,9.80
2022-12-25T02:08:26.029Z,9.79
2022-12-25T02:10:52.728Z,9.81
2022-12-25T02:13:20.465Z,9.71
2022-12-25T02:16:16.679Z,9.84
2022-12-25T02:18:50.119Z,9.81
2022-12-25T02:21:20.038Z,9.84
2022-12-25T02:24:24.078Z,9.59
2022-12-25T02:27:11.180Z,9.58
2022-12-25T02:29:59.273Z,9.65
2022-12-25T02:32:32.994Z,9.76
2022-12-25T02:35:02.855Z,9.88
2022-12-25T02:37:33.094Z,9.56
2022-12-25T02:40:24.549Z,9.63
2022-12-25T02:43:16.951Z,9.47
2022-12-25T02:46:26.262Z,9.54
2022-12-25T02:49:19.823Z,9.77
2022-12-25T02:52:17.409Z,9.61
2022-12-25T02:55:09.126Z,9.43
2022-12-25T02:57:59.830Z,9.39
2022-12-25T03:00:45.359Z,9.12
2022-12-25T03:03:33.530Z,9.47
2022-12-25T03:06:22.500Z,9.28
2022-12-25T03:08:53.645Z,9.35
2022-12-25T03:11:32.758Z,9.45
2022-12-25T03:14:23.934Z,9.57
2022-12-25T03:16:55.925Z,9.45
2022-12-25T03:19:46.901Z,9.56
2022-12-25T03:22:37.796Z,9.56
2022-12-25T03:25:23.704Z,9.48
2022-12-25T03:27:54.624Z,9.59
2022-12-25T03:30:42.196Z,9.59
2022-12-25T03:33:43.730Z,9.56
2022-12-25T03:36:39.240Z,9.71
2022-12-25T03:39:41.429Z,9.60
2022-12-25T03:42:28.116Z,9.42
2022-12-25T03:45:27.272Z,9.45
2022-12-25T03:48:09.034Z,9.46
2022-12-25T03:51:26.638Z,9.50
2022-12-25T03:54:16.208Z,9.49
2022-12-25T03:57:02.778Z,9.51
2022-12-25T03:59:48.310Z,9.34
2022-12-25T04:02:34.046Z,9.29
2022-12-25T04:05:19.740Z,9.15
2022-12-25T04:08:05.067Z,9.26
2022-12-25T04:10:50.570Z,9.14
2022-12-25T04:13:35.887Z,9.27
2022-12-25T04:16:21.222Z,9.19
2022-12-25T04:19:06.965Z,9.25
2022-12-25T04:21:52.391Z,9.11
2022-12-25T04:24:37.953Z,9.28
2022-12-25T04:27:23.361Z,9.20
2022-12-25T04:30:08.768Z,9.33
2022-12-25T04:32:54.151Z,9.30
2022-12-25T04:35:39.540Z,9.27
2022-12-25T04:38:06.457Z,8.99
2022-12-25T04:40:33.249Z,9.08
2022-12-25T04:43:00.034Z,8.66
2022-12-25T04:45:26.878Z,8.73
2022-12-25T04:47:53.755Z,8.79
2022-12-25T04:50:20.581Z,8.65
2022-12-25T04:52:47.244Z,8.60
2022-12-25T04:55:14.122Z,8.72
2022-12-25T04:57:40.908Z,8.73
2022-12-25T05:00:08.230Z,8.57
2022-12-25T05:02:35.230Z,8.72
2022-12-25T05:05:02.391Z,8.66
2022-12-25T05:07:29.204Z,8.49
2022-12-25T05:09:57.399Z,8.87
2022-12-25T05:12:24.278Z,8.52
2022-12-25T05:14:51.041Z,8.72
2022-12-25T05:17:18.049Z,8.70
2022-12-25T05:19:44.889Z,8.70
2022-12-25T05:22:11.640Z,8.67
2022-12-25T05:24:38.474Z,8.69
2022-12-25T05:27:05.234Z,8.80
2022-12-25T05:29:31.940Z,8.80
2022-12-25T05:31:58.963Z,8.91
2022-12-25T05:34:25.894Z,8.87
2022-12-25T05:36:52.818Z,8.93
2022-12-25T05:39:19.820Z,8.79
2022-12-25T05:41:46.597Z,8.77
2022-12-25T05:44:13.266Z,8.95
2022-12-25T05:46:40.268Z,8.91
2022-12-25T05:49:07.005Z,8.72
2022-12-25T05:51:33.855Z,8.76
2022-12-25T05:54:00.725Z,9.09
2022-12-25T05:56:28.319Z,9.02
2022-12-25T05:58:55.219Z,9.09
2022-12-25T06:01:25.025Z,9.34
2022-12-25T06:03:52.283Z,9.28
2022-12-25T06:06:19.560Z,9.09
2022-12-25T06:08:46.552Z,9.04
2022-12-25T06:11:15.172Z,9.17
2022-12-25T06:13:43.528Z,9.26
2022-12-25T06:16:12.034Z,9.37
2022-12-25T06:18:45.343Z,9.23
2022-12-25T06:21:13.948Z,9.21
2022-12-25T06:23:41.739Z,9.18
2022-12-25T06:26:15.220Z,9.19
2022-12-25T06:28:42.231Z,9.29
2022-12-25T06:31:11.975Z,9.33
2022-12-25T06:33:39.192Z,9.28
2022-12-25T06:36:15.183Z,9.69
2022-12-25T06:38:42.099Z,9.81
2022-12-25T06:41:14.980Z,9.82
2022-12-25T06:43:41.672Z,9.51
2022-12-25T06:46:11.807Z,9.79
2022-12-25T06:48:40.458Z,9.88
2022-12-25T06:51:07.840Z,9.71
2022-12-25T06:53:40.237Z,10.00
2022-12-25T06:56:16.311Z,10.10
2022-12-25T06:58:45.495Z,9.96
2022-12-25T07:01:25.132Z,10.08
2022-12-25T07:03:55.974Z,10.02
2022-12-25T07:06:22.967Z,10.02
2022-12-25T07:08:50.073Z,10.11
2022-12-25T07:11:16.886Z,10.19
2022-12-25T07:13:43.755Z,10.40
2022-12-25T07:16:12.658Z,10.31
2022-12-25T07:18:40.719Z,10.08
2022-12-25T07:21:16.424Z,10.11
2022-12-25T07:23:44.345Z,10.25
2022-12-25T07:26:12.380Z,10.14
2022-12-25T07:28:39.435Z,10.09
2022-12-25T07:31:14.937Z,10.24
2022-12-25T07:33:42.541Z,10.52
2022-12-25T07:36:13.556Z,10.19
2022-12-25T07:38:43.684Z,10.44
2022-12-25T07:41:12.868Z,10.49
2022-12-25T07:43:39.788Z,10.53
2022-12-25T07:46:08.874Z,10.57
2022-12-25T07:48:36.455Z,10.82
2022-12-25T07:51:05.981Z,10.92
2022-12-25T07:53:34.283Z,11.19
2022-12-25T07:56:06.904Z,10.73
2022-12-25T07:58:34.187Z,11.04
2022-12-25T08:01:07.256Z,11.20
2022-12-25T08:03:35.351Z,11.34
2022-12-25T08:06:06.989Z,11.21
2022-12-25T08:08:34.850Z,11.37
2022-12-25T08:11:01.916Z,11.21
2022-12-25T08:13:32.889Z,11.34
2022-12-25T08:16:07.954Z,11.39
2022-12-25T08:18:37.120Z,11.63
2022-12-25T08:21:06.282Z,11.59
2022-12-25T08:23:38.554Z,11.92
2022-12-25T08:26:08.581Z,12.02
2022-12-25T08:28:36.009Z,11.43
2022-12-25T08:31:16.272Z,11.41
2022-12-25T08:33:43.255Z,11.72
2022-12-25T08:36:11.873Z,11.66
2022-12-25T08:38:39.308Z,12.62
2022-12-25T08:41:06.603Z,13.06
2022-12-25T08:43:33.331Z,13.66
2022-12-25T08:46:00.337Z,13.95
2022-12-25T08:48:28.026Z,14.09
2022-12-25T08:50:55.113Z,14.55
2022-12-25T08:53:22.917Z,14.86
2022-12-25T08:55:49.887Z,14.58
2022-12-25T08:58:16.851Z,14.83
2022-12-25T09:00:43.766Z,14.51
2022-12-25T09:03:10.640Z,14.27
2022-12-25T09:05:37.929Z,14.63
2022-12-25T09:08:05.144Z,14.26
2022-12-25T09:10:34.902Z,14.55
2022-12-25T09:13:01.813Z,14.21
2022-12-25T09:15:28.581Z,14.27
2022-12-25T09:17:55.479Z,14.52
2022-12-25T09:20:22.355Z,14.43
2022-12-25T09:22:49.289Z,14.43
2022-12-25T09:25:16.147Z,14.81
2022-12-25T09:27:43.701Z,15.07
2022-12-25T09:30:13.982Z,15.06
2022-12-25T09:32:40.796Z,14.80
2022-12-25T09:35:08.469Z,15.24
2022-12-25T09:37:36.046Z,14.88
2022-12-25T09:40:03.271Z,14.98
2022-12-25T09:42:32.504Z,15.40
2022-12-25T09:45:02.946Z,15.68
2022-12-25T09:47:34.031Z,15.46
2022-12-25T09:50:07.048Z,15.55
2022-12-25T09:52:36.997Z,15.92
2022-12-25T09:55:14.807Z,16.17
2022-12-25T09:57:46.968Z,15.66
2022-12-25T10:00:20.515Z,15.59
2022-12-25T10:02:47.508Z,15.23
2022-12-25T10:05:20.918Z,15.21
2022-12-25T10:08:04.707Z,15.15
2022-12-25T10:10:49.903Z,14.83
2022-12-25T10:13:34.849Z,15.53
2022-12-25T10:16:20.255Z,15.33
2022-12-25T10:19:02.552Z,15.59
2022-12-25T10:21:30.789Z,16.10
2022-12-25T10:24:14.938Z,15.95
2022-12-25T10:26:44.643Z,15.47
2022-12-25T10:29:17.127Z,15.34
2022-12-25T10:31:49.243Z,15.41
2022-12-25T10:34:18.174Z,15.35
2022-12-25T10:36:46.988Z,15.69
2022-12-25T10:39:17.966Z,15.70
2022-12-25T10:42:00.215Z,15.72
2022-12-25T10:44:27.000Z,15.83
2022-12-25T10:46:59.186Z,15.88
2022-12-25T10:49:31.965Z,15.59
2022-12-25T10:52:00.204Z,15.59
2022-12-25T10:54:33.548Z,15.38
2022-12-25T10:57:03.479Z,15.67
2022-12-25T10:59:35.824Z,15.33
2022-12-25T11:02:13.363Z,15.81
2022-12-25T11:04:40.408Z,15.75
2022-12-25T11:07:20.063Z,15.85
2022-12-25T11:10:05.077Z,15.94
2022-12-25T11:12:44.577Z,15.43
2022-12-25T11:15:42.828Z,15.10
2022-12-25T11:18:23.211Z,15.72
2022-12-25T11:20:59.244Z,15.93
2022-12-25T11:23:28.688Z,15.69
2022-12-25T11:26:08.330Z,15.03
2022-12-25T11:28:38.610Z,15.41
2022-12-25T11:31:19.733Z,15.35
2022-12-25T11:33:52.369Z,15.38
2022-12-25T11:36:46.400Z,15.13
2022-12-25T11:39:24.170Z,15.25
2022-12-25T11:41:59.286Z,15.58
2022-12-25T11:44:30.847Z,15.67
2022-12-25T11:47:08.513Z,15.33
2022-12-25T11:49:50.272Z,15.16
2022-12-25T11:52:20.148Z,15.61
2022-12-25T11:55:01.360Z,16.27
2022-12-25T11:57:31.238Z,16.76
2022-12-25T12:00:10.401Z,17.27
2022-12-25T12:02:46.113Z,17.61
2022-12-25T12:05:25.513Z,17.83
2022-12-25T12:07:55.032Z,17.91
2022-12-25T12:10:29.591Z,17.97
2022-12-25T12:13:41.949Z,18.47
2022-12-25T12:16:09.434Z,19.20
2022-12-25T12:18:36.554Z,18.65
2022-12-25T12:21:23.993Z,18.92
2022-12-25T12:24:02.282Z,19.09
2022-12-25T12:26:34.716Z,19.21
2022-12-25T12:29:04.173Z,18.75
2022-12-25T12:31:43.624Z,19.14
2022-12-25T12:34:26.151Z,18.72
2022-12-25T12:37:05.095Z,19.06
2022-12-25T12:39:36.915Z,19.93
2022-12-25T12:42:18.013Z,20.94
2022-12-25T12:44:46.297Z,19.33
2022-12-25T12:47:44.770Z,20.36
2022-12-25T12:50:32.776Z,21.43
2022-12-25T12:53:00.814Z,21.94
2022-12-25T12:55:33.201Z,22.77
2022-12-25T12:58:05.622Z,23.17
2022-12-25T13:00:52.425Z,23.61
2022-12-25T13:03:50.593Z,23.50
2022-12-25T13:06:46.186Z,23.17
2022-12-25T13:09:34.200Z,22.22
2022-12-25T13:12:07.157Z,21.55
2022-12-25T13:14:35.658Z,21.54
2022-12-25T13:17:07.755Z,21.13
2022-12-25T13:19:37.015Z,21.10
2022-12-25T13:22:07.292Z,20.95
2022-12-25T13:24:36.673Z,19.60
2022-12-25T13:27:23.871Z,17.49
2022-12-25T13:29:51.126Z,16.39
2022-12-25T13:32:26.456Z,15.95
2022-12-25T13:34:54.226Z,15.51
2022-12-25T13:37:24.183Z,15.45
2022-12-25T13:39:54.756Z,15.15
2022-12-25T13:42:25.458Z,15.09
2022-12-25T13:44:57.873Z,15.14
2022-12-25T13:47:33.746Z,14.80
2022-12-25T13:50:22.511Z,14.79
2022-12-25T13:52:50.360Z,14.71
2022-12-25T13:55:23.585Z,14.41
2022-12-25T13:58:01.029Z,14.44
2022-12-25T14:00:38.150Z,14.32
2022-12-25T14:03:07.593Z,14.24
2022-12-25T14:05:42.377Z,14.39
2022-12-25T14:08:16.125Z,14.09
2022-12-25T14:10:49.671Z,14.08
2022-12-25T14:13:19.824Z,13.75
2022-12-25T14:15:50.523Z,13.97
2022-12-25T14:18:21.319Z,14.19
2022-12-25T14:21:01.899Z,14.33
2022-12-25T14:23:43.746Z,13.95
2022-12-25T14:26:31.985Z,13.75
2022-12-25T14:29:04.818Z,13.72
2022-12-25T14:31:32.715Z,13.54
2022-12-25T14:34:03.376Z,13.58
2022-12-25T14:36:38.084Z,13.44
2022-12-25T14:39:07.807Z,13.54
2022-12-25T14:41:41.818Z,13.36
2022-12-25T14:44:36.107Z,13.40
2022-12-25T14:47:13.271Z,13.44
2022-12-25T14:49:40.328Z,13.42
2022-12-25T14:52:13.758Z,13.60
2022-12-25T14:54:45.856Z,13.42
2022-12-25T14:57:25.834Z,12.92
2022-12-25T15:00:08.079Z,13.02
2022-12-25T15:02:43.001Z,13.08
2022-12-25T15:05:37.211Z,12.87
2022-12-25T15:08:19.703Z,12.93
2022-12-25T15:11:03.438Z,12.88
2022-12-25T15:13:31.590Z,13.10
2022-12-25T15:16:01.326Z,12.98
2022-12-25T15:18:34.275Z,13.12
2022-12-25T15:21:02.320Z,13.34
2022-12-25T15:23:29.233Z,13.28
2022-12-25T15:25:56.003Z,12.95
2022-12-25T15:28:23.061Z,13.01
2022-12-25T15:30:50.050Z,12.89
2022-12-25T15:33:18.978Z,12.67
2022-12-25T15:35:46.156Z,12.99
2022-12-25T15:38:13.627Z,12.86
2022-12-25T15:40:41.450Z,13.15
2022-12-25T15:43:31.222Z,12.87
2022-12-25T15:46:00.580Z,12.97
2022-12-25T15:48:27.340Z,13.07
2022-12-25T15:50:54.313Z,13.00
2022-12-25T15:53:21.120Z,12.69
2022-12-25T15:55:47.952Z,12.92
2022-12-25T15:58:15.351Z,12.72
2022-12-25T16:00:42.159Z,12.77
2022-12-25T16:03:09.250Z,12.69
2022-12-25T16:05:36.142Z,12.45
2022-12-25T16:08:02.910Z,12.49
2022-12-25T16:10:34.882Z,12.52
2022-12-25T16:13:05.263Z,12.40
2022-12-25T16:15:32.236Z,12.20
2022-12-25T16:17:59.004Z,12.37
2022-12-25T16:20:25.874Z,12.62
2022-12-25T16:22:52.751Z,12.40
2022-12-25T16:25:20.008Z,12.33
2022-12-25T16:27:47.415Z,12.54
2022-12-25T16:30:35.776Z,12.43
2022-12-25T16:33:02.784Z,12.55
2022-12-25T16:35:30.530Z,12.39
2022-12-25T16:37:57.523Z,12.83
2022-12-25T16:40:24.969Z,12.79
2022-12-25T16:42:51.749Z,12.77
2022-12-25T16:45:19.583Z,12.72
2022-12-25T16:47:46.527Z,12.54
2022-12-25T16:50:13.823Z,12.80
2022-12-25T16:52:40.552Z,13.00
2022-12-25T16:55:08.777Z,13.07
2022-12-25T16:57:35.863Z,13.12
2022-12-25T17:00:02.754Z,13.31
2022-12-25T17:02:29.823Z,12.98
2022-12-25T17:04:57.157Z,13.25
2022-12-25T17:07:23.961Z,12.94
2022-12-25T17:09:50.984Z,13.11
2022-12-25T17:12:17.806Z,12.99
2022-12-25T17:14:44.649Z,13.18
2022-12-25T17:17:11.458Z,13.09
2022-12-25T17:19:38.874Z,12.95
2022-12-25T17:22:06.733Z,12.92
2022-12-25T17:24:36.281Z,12.80
2022-12-25T17:27:03.825Z,12.69
2022-12-25T17:29:32.043Z,12.65
2022-12-25T17:31:58.927Z,12.71
2022-12-25T17:34:25.713Z,12.55
2022-12-25T17:36:54.446Z,12.77
2022-12-25T17:39:21.149Z,12.69
2022-12-25T17:41:50.597Z,12.81
2022-12-25T17:44:18.788Z,12.79
2022-12-25T17:46:45.598Z,12.69
2022-12-25T17:49:18.369Z,12.72
2022-12-25T17:51:45.722Z,12.50
2022-12-25T17:54:12.948Z,12.38
2022-12-25T17:56:39.914Z,12.16
2022-12-25T17:59:08.543Z,12.42
2022-12-25T18:01:38.422Z,12.62
2022-12-25T18:04:06.760Z,12.62
2022-12-25T18:06:35.602Z,12.59
2022-12-25T18:09:02.567Z,12.34
2022-12-25T18:11:33.713Z,12.39
2022-12-25T18:14:06.626Z,12.53
2022-12-25T18:16:37.207Z,12.60
2022-12-25T18:19:04.352Z,12.37
2022-12-25T18:21:32.334Z,12.43
2022-12-25T18:23:59.269Z,12.29
2022-12-25T18:26:28.669Z,12.48
2022-12-25T18:28:56.045Z,12.36
2022-12-25T18:31:25.894Z,12.24
2022-12-25T18:33:54.138Z,12.55
2022-12-25T18:36:24.538Z,12.29
2022-12-25T18:38:53.552Z,12.43
2022-12-25T18:41:21.527Z,12.34
2022-12-25T18:43:52.497Z,12.16
2022-12-25T18:46:26.830Z,12.18
2022-12-25T18:48:57.625Z,12.42
2022-12-25T18:51:24.901Z,12.16
2022-12-25T18:53:51.855Z,12.15
2022-12-25T18:56:19.956Z,12.09
2022-12-25T18:58:47.099Z,11.99
2022-12-25T19:01:20.264Z,12.11
2022-12-25T19:03:49.153Z,12.05
2022-12-25T19:06:22.818Z,12.09
2022-12-25T19:08:49.726Z,12.05
2022-12-25T19:11:17.327Z,12.10
2022-12-25T19:13:45.145Z,11.98
2022-12-25T19:16:12.478Z,12.12
2022-12-25T19:18:40.061Z,11.86
2022-12-25T19:21:09.469Z,11.59
2022-12-25T19:23:38.130Z,11.77
2022-12-25T19:26:05.967Z,11.56
2022-12-25T19:28:32.776Z,11.41
2022-12-25T19:31:00.860Z,11.21
2022-12-25T19:33:28.257Z,11.00
2022-12-25T19:36:02.891Z,10.73
2022-12-25T19:38:30.195Z,10.81
2022-12-25T19:41:03.025Z,10.49
2022-12-25T19:43:32.003Z,10.65
2022-12-25T19:45:59.410Z,10.39
2022-12-25T19:48:26.328Z,10.52
2022-12-25T19:50:53.359Z,10.55
2022-12-25T19:53:23.460Z,10.44
2022-12-25T19:55:52.677Z,10.52
2022-12-25T19:58:20.736Z,10.51
2022-12-25T20:01:08.078Z,10.50
2022-12-25T20:03:41.858Z,10.14
2022-12-25T20:06:19.886Z,10.20
2022-12-25T20:08:47.674Z,10.01
2022-12-25T20:11:14.910Z,10.03
2022-12-25T20:13:41.561Z,9.95
2022-12-25T20:16:10.138Z,10.00
2022-12-25T20:18:39.489Z,10.07
2022-12-25T20:21:10.403Z,10.10
2022-12-25T20:23:37.486Z,10.05
2022-12-25T20:26:05.513Z,9.90
2022-12-25T20:28:34.479Z,9.87
2022-12-25T20:31:19.200Z,9.61
2022-12-25T20:33:46.440Z,9.39
2022-12-25T20:36:13.379Z,9.41
2022-12-25T20:38:40.986Z,9.34
2022-12-25T20:41:30.210Z,9.23
2022-12-25T20:43:57.659Z,9.31
2022-12-25T20:46:25.371Z,9.37
2022-12-25T20:48:52.968Z,9.31
2022-12-25T20:51:23.081Z,9.15
2022-12-25T20:53:50.542Z,9.15
2022-12-25T20:56:19.391Z,9.16
2022-12-25T20:58:46.229Z,9.02
2022-12-25T21:01:17.189Z,8.98
2022-12-25T21:03:44.949Z,8.81
2022-12-25T21:06:12.859Z,8.90
2022-12-25T21:08:41.181Z,8.75
2022-12-25T21:11:09.151Z,8.73
2022-12-25T21:13:42.965Z,8.62
2022-12-25T21:16:12.352Z,8.45
2022-12-25T21:18:39.267Z,8.57
2022-12-25T21:21:07.760Z,8.54
2022-12-25T21:23:37.105Z,7.99
2022-12-25T21:26:20.963Z,8.12
2022-12-25T21:28:49.729Z,8.12
2022-12-25T21:31:17.517Z,8.23
2022-12-25T21:33:54.442Z,8.33
2022-12-25T21:36:41.322Z,8.46
2022-12-25T21:39:08.689Z,8.39
2022-12-25T21:41:37.887Z,8.37
2022-12-25T21:44:05.538Z,8.29
2022-12-25T21:46:32.537Z,7.95
2022-12-25T21:48:59.740Z,7.90
2022-12-25T21:51:48.599Z,8.20
2022-12-25T21:54:16.215Z,7.92
2022-12-25T21:56:45.592Z,7.86
2022-12-25T21:59:18.517Z,7.98
2022-12-25T22:01:47.302Z,8.02
2022-12-25T22:04:15.897Z,7.49
2022-12-25T22:07:01.789Z,7.84
2022-12-25T22:09:28.979Z,7.75
2022-12-25T22:12:15.998Z,7.85
2022-12-25T22:14:56.247Z,7.88
2022-12-25T22:17:45.717Z,7.88
2022-12-25T22:20:15.999Z,7.97
2022-12-25T22:22:43.109Z,7.89
2022-12-25T22:25:12.658Z,7.87
2022-12-25T22:27:41.145Z,7.87
2022-12-25T22:30:13.739Z,7.69
2022-12-25T22:32:40.617Z,7.80
2022-12-25T22:35:08.235Z,7.83
2022-12-25T22:37:36.170Z,7.27
2022-12-25T22:40:04.373Z,7.42
2022-12-25T22:42:31.091Z,7.59
2022-12-25T22:44:58.000Z,7.72
2022-12-25T22:47:24.949Z,7.59
2022-12-25T22:49:52.649Z,7.52
2022-12-25T22:52:19.395Z,7.47
2022-12-25T22:54:46.157Z,7.43
2022-12-25T22:57:13.054Z,7.34
2022-12-25T22:59:39.951Z,7.59
2022-12-25T23:02:06.898Z,7.35
2022-12-25T23:04:33.827Z,7.33
2022-12-25T23:07:00.552Z,7.31
2022-12-25T23:09:28.074Z,7.16
2022-12-25T23:11:57.051Z,7.17
2022-12-25T23:14:40.734Z,7.21
2022-12-25T23:17:31.725Z,7.14
2022-12-25T23:20:19.212Z,6.92
2022-12-25T23:23:05.678Z,7.07
2022-12-25T23:25:53.780Z,7.03
2022-12-25T23:28:41.013Z,6.82
2022-12-25T23:31:07.997Z,6.82
2022-12-25T23:33:35.069Z,6.62
2022-12-25T23:36:02.081Z,6.71
2022-12-25T23:38:28.974Z,6.45
2022-12-25T23:40:55.749Z,6.45
2022-12-25T23:43:22.787Z,6.56
2022-12-25T23:45:49.746Z,6.62
2022-12-25T23:48:16.488Z,6.59
2022-12-25T23:50:43.225Z,6.51
2022-12-25T23:53:11.136Z,6.53
2022-12-25T23:55:37.989Z,6.44
2022-12-25T23:58:05.037Z,6.55
